sensor_id;sensor_type;location;lat;lon;timestamp;P1;durP1;ratioP1;P2;durP2;ratioP2
31043;SDS011;17710;52.520;13.352;2022-12-18T00:00:38;56.85;;;19.13;;
31043;SDS011;17710;52.520;13.352;2022-12-18T00:03:06;55.42;;;17.55;;
31043;SDS011;17710;52.520;13.352;2022-12-18T00:05:32;51.58;;;16.83;;
31043;SDS011;17710;52.520;13.352;2022-12-18T00:08:08;49.47;;;17.17;;
31043;SDS011;17710;52.520;13.352;2022-12-18T00:10:34;46.70;;;16.73;;
31043;SDS011;17710;52.520;13.352;2022-12-18T00:13:01;52.33;;;19.55;;
31043;SDS011;17710;52.520;13.352;2022-12-18T00:15:27;49.30;;;17.10;;
31043;SDS011;17710;52.520;13.352;2022-12-18T00:17:54;43.17;;;16.38;;
31043;SDS011;17710;52.520;13.352;2022-12-18T00:20:20;46.38;;;16.42;;
31043;SDS011;17710;52.520;13.352;2022-12-18T00:22:50;43.83;;;15.93;;
31043;SDS011;17710;52.520;13.352;2022-12-18T00:25:18;49.17;;;17.30;;
31043;SDS011;17710;52.520;13.352;2022-12-18T00:27:45;46.95;;;16.15;;
31043;SDS011;17710;52.520;13.352;2022-12-18T00:30:11;44.50;;;15.82;;
31043;SDS011;17710;52.520;13.352;2022-12-18T00:32:38;49.33;;;16.23;;
31043;SDS011;17710;52.520;13.352;2022-12-18T00:35:05;43.90;;;15.85;;
31043;SDS011;17710;52.520;13.352;2022-12-18T00:37:32;40.22;;;14.45;;
31043;SDS011;17710;52.520;13.352;2022-12-18T00:39:59;38.65;;;15.35;;
31043;SDS011;17710;52.520;13.352;2022-12-18T00:42:27;43.95;;;15.32;;
31043;SDS011;17710;52.520;13.352;2022-12-18T00:45:11;51.72;;;17.60;;
31043;SDS011;17710;52.520;13.352;2022-12-18T00:47:38;54.35;;;17.48;;
31043;SDS011;17710;52.520;13.352;2022-12-18T00:50:05;50.83;;;17.95;;
31043;SDS011;17710;52.520;13.352;2022-12-18T00:52:32;66.10;;;18.67;;
31043;SDS011;17710;52.520;13.352;2022-12-18T00:54:59;58.58;;;19.55;;
31043;SDS011;17710;52.520;13.352;2022-12-18T00:57:25;55.15;;;18.00;;
31043;SDS011;17710;52.520;13.352;2022-12-18T00:59:53;53.45;;;18.55;;
31043;SDS011;17710;52.520;13.352;2022-12-18T01:02:19;53.75;;;17.80;;
31043;SDS011;17710;52.520;13.352;2022-12-18T01:04:46;42.17;;;15.90;;
31043;SDS011;17710;52.520;13.352;2022-12-18T01:07:12;46.85;;;15.15;;
31043;SDS011;17710;52.520;13.352;2022-12-18T01:09:39;44.78;;;15.32;;
31043;SDS011;17710;52.520;13.352;2022-12-18T01:12:06;52.03;;;18.10;;
31043;SDS011;17710;52.520;13.352;2022-12-18T01:14:32;51.10;;;17.00;;
31043;SDS011;17710;52.520;13.352;2022-12-18T01:17:00;52.85;;;18.13;;
31043;SDS011;17710;52.520;13.352;2022-12-18T01:19:27;51.85;;;17.98;;
31043;SDS011;17710;52.520;13.352;2022-12-18T01:21:54;47.30;;;17.15;;
31043;SDS011;17710;52.520;13.352;2022-12-18T01:24:20;48.45;;;17.98;;
31043;SDS011;17710;52.520;13.352;2022-12-18T01:26:47;43.85;;;16.33;;
31043;SDS011;17710;52.520;13.352;2022-12-18T01:29:14;50.70;;;18.20;;
31043;SDS011;17710;52.520;13.352;2022-12-18T01:31:40;52.03;;;18.50;;
31043;SDS011;17710;52.520;13.352;2022-12-18T01:34:08;52.92;;;17.95;;
31043;SDS011;17710;52.520;13.352;2022-12-18T01:36:35;53.22;;;17.58;;
31043;SDS011;17710;52.520;13.352;2022-12-18T01:39:04;54.33;;;18.35;;
31043;SDS011;17710;52.520;13.352;2022-12-18T01:41:32;53.38;;;17.48;;
31043;SDS011;17710;52.520;13.352;2022-12-18T01:47:29;54.35;;;18.33;;
31043;SDS011;17710;52.520;13.352;2022-12-18T01:50:00;47.95;;;16.50;;
31043;SDS011;17710;52.520;13.352;2022-12-18T01:52:30;52.58;;;18.65;;
31043;SDS011;17710;52.520;13.352;2022-12-18T01:54:59;52.65;;;17.48;;
31043;SDS011;17710;52.520;13.352;2022-12-18T01:57:28;54.33;;;19.75;;
31043;SDS011;17710;52.520;13.352;2022-12-18T01:59:55;53.17;;;17.73;;
31043;SDS011;17710;52.520;13.352;2022-12-18T02:02:25;52.08;;;17.02;;
31043;SDS011;17710;52.520;13.352;2022-12-18T02:04:53;44.60;;;16.65;;
31043;SDS011;17710;52.520;13.352;2022-12-18T02:07:23;53.83;;;19.13;;
31043;SDS011;17710;52.520;13.352;2022-12-18T02:09:59;47.65;;;17.25;;
31043;SDS011;17710;52.520;13.352;2022-12-18T02:12:30;49.42;;;17.40;;
31043;SDS011;17710;52.520;13.352;2022-12-18T02:15:07;54.78;;;18.80;;
31043;SDS011;17710;52.520;13.352;2022-12-18T02:17:41;60.78;;;19.48;;
31043;SDS011;17710;52.520;13.352;2022-12-18T02:20:12;57.97;;;18.70;;
31043;SDS011;17710;52.520;13.352;2022-12-18T02:22:47;53.03;;;18.30;;
31043;SDS011;17710;52.520;13.352;2022-12-18T02:25:26;57.08;;;16.92;;
31043;SDS011;17710;52.520;13.352;2022-12-18T02:28:08;51.47;;;17.85;;
31043;SDS011;17710;52.520;13.352;2022-12-18T02:30:38;62.15;;;19.35;;
31043;SDS011;17710;52.520;13.352;2022-12-18T02:33:07;51.35;;;17.70;;
31043;SDS011;17710;52.520;13.352;2022-12-18T02:35:35;53.35;;;18.33;;
31043;SDS011;17710;52.520;13.352;2022-12-18T02:38:03;60.55;;;19.92;;
31043;SDS011;17710;52.520;13.352;2022-12-18T02:40:30;57.53;;;19.27;;
31043;SDS011;17710;52.520;13.352;2022-12-18T02:43:01;55.72;;;19.00;;
31043;SDS011;17710;52.520;13.352;2022-12-18T02:45:30;52.88;;;18.33;;
31043;SDS011;17710;52.520;13.352;2022-12-18T02:47:57;51.83;;;17.52;;
31043;SDS011;17710;52.520;13.352;2022-12-18T02:50:25;60.67;;;19.10;;
31043;SDS011;17710;52.520;13.352;2022-12-18T02:53:03;57.05;;;18.15;;
31043;SDS011;17710;52.520;13.352;2022-12-18T02:55:39;59.20;;;18.25;;
31043;SDS011;17710;52.520;13.352;2022-12-18T02:58:17;56.00;;;17.58;;
31043;SDS011;17710;52.520;13.352;2022-12-18T03:00:51;57.70;;;18.63;;
31043;SDS011;17710;52.520;13.352;2022-12-18T03:03:25;57.47;;;19.27;;
31043;SDS011;17710;52.520;13.352;2022-12-18T03:05:56;50.60;;;17.08;;
31043;SDS011;17710;52.520;13.352;2022-12-18T03:08:28;51.78;;;17.35;;
31043;SDS011;17710;52.520;13.352;2022-12-18T03:10:59;51.55;;;18.15;;
31043;SDS011;17710;52.520;13.352;2022-12-18T03:13:28;51.78;;;17.23;;
31043;SDS011;17710;52.520;13.352;2022-12-18T03:16:01;50.35;;;17.50;;
31043;SDS011;17710;52.520;13.352;2022-12-18T03:18:32;51.85;;;17.58;;
31043;SDS011;17710;52.520;13.352;2022-12-18T03:21:04;55.28;;;19.85;;
31043;SDS011;17710;52.520;13.352;2022-12-18T03:23:33;57.28;;;17.95;;
31043;SDS011;17710;52.520;13.352;2022-12-18T03:26:03;57.80;;;18.48;;
31043;SDS011;17710;52.520;13.352;2022-12-18T03:28:33;58.80;;;17.77;;
31043;SDS011;17710;52.520;13.352;2022-12-18T03:31:05;59.30;;;20.48;;
31043;SDS011;17710;52.520;13.352;2022-12-18T03:33:37;55.30;;;20.02;;
31043;SDS011;17710;52.520;13.352;2022-12-18T03:36:07;60.50;;;20.92;;
31043;SDS011;17710;52.520;13.352;2022-12-18T03:38:34;60.38;;;20.27;;
31043;SDS011;17710;52.520;13.352;2022-12-18T03:41:02;60.65;;;20.33;;
31043;SDS011;17710;52.520;13.352;2022-12-18T03:43:40;67.90;;;20.30;;
31043;SDS011;17710;52.520;13.352;2022-12-18T03:46:14;69.15;;;22.58;;
31043;SDS011;17710;52.520;13.352;2022-12-18T03:48:51;58.53;;;20.10;;
31043;SDS011;17710;52.520;13.352;2022-12-18T03:51:23;67.10;;;22.02;;
31043;SDS011;17710;52.520;13.352;2022-12-18T03:53:55;73.50;;;22.50;;
31043;SDS011;17710;52.520;13.352;2022-12-18T03:56:25;76.45;;;23.95;;
31043;SDS011;17710;52.520;13.352;2022-12-18T03:58:55;72.63;;;22.52;;
31043;SDS011;17710;52.520;13.352;2022-12-18T04:01:28;72.72;;;21.92;;
31043;SDS011;17710;52.520;13.352;2022-12-18T04:03:58;77.75;;;25.00;;
31043;SDS011;17710;52.520;13.352;2022-12-18T04:06:26;90.38;;;26.27;;
31043;SDS011;17710;52.520;13.352;2022-12-18T04:08:53;81.60;;;25.50;;
31043;SDS011;17710;52.520;13.352;2022-12-18T04:11:20;77.50;;;25.55;;
31043;SDS011;17710;52.520;13.352;2022-12-18T04:13:46;84.18;;;26.00;;
31043;SDS011;17710;52.520;13.352;2022-12-18T04:16:13;90.35;;;27.50;;
31043;SDS011;17710;52.520;13.352;2022-12-18T04:18:40;94.50;;;28.20;;
31043;SDS011;17710;52.520;13.352;2022-12-18T04:21:07;93.07;;;27.10;;
31043;SDS011;17710;52.520;13.352;2022-12-18T04:23:33;95.40;;;28.38;;
31043;SDS011;17710;52.520;13.352;2022-12-18T04:26:00;90.88;;;28.30;;
31043;SDS011;17710;52.520;13.352;2022-12-18T04:28:26;91.53;;;27.38;;
31043;SDS011;17710;52.520;13.352;2022-12-18T04:30:53;100.32;;;28.58;;
31043;SDS011;17710;52.520;13.352;2022-12-18T04:33:19;95.53;;;29.25;;
31043;SDS011;17710;52.520;13.352;2022-12-18T04:35:47;90.60;;;27.70;;
31043;SDS011;17710;52.520;13.352;2022-12-18T04:38:14;101.95;;;30.10;;
31043;SDS011;17710;52.520;13.352;2022-12-18T04:40:40;89.53;;;26.63;;
31043;SDS011;17710;52.520;13.352;2022-12-18T04:43:06;95.63;;;27.02;;
31043;SDS011;17710;52.520;13.352;2022-12-18T04:45:33;97.28;;;28.98;;
31043;SDS011;17710;52.520;13.352;2022-12-18T04:48:00;98.45;;;29.70;;
31043;SDS011;17710;52.520;13.352;2022-12-18T04:50:27;91.47;;;26.83;;
31043;SDS011;17710;52.520;13.352;2022-12-18T04:52:55;94.95;;;27.65;;
31043;SDS011;17710;52.520;13.352;2022-12-18T04:55:22;91.72;;;26.88;;
31043;SDS011;17710;52.520;13.352;2022-12-18T04:57:52;100.15;;;26.77;;
31043;SDS011;17710;52.520;13.352;2022-12-18T05:00:19;87.32;;;24.60;;
31043;SDS011;17710;52.520;13.352;2022-12-18T05:02:45;86.93;;;25.27;;
31043;SDS011;17710;52.520;13.352;2022-12-18T05:05:12;83.63;;;26.25;;
31043;SDS011;17710;52.520;13.352;2022-12-18T05:07:38;79.60;;;25.10;;
31043;SDS011;17710;52.520;13.352;2022-12-18T05:10:07;85.85;;;24.65;;
31043;SDS011;17710;52.520;13.352;2022-12-18T05:12:34;79.43;;;25.05;;
31043;SDS011;17710;52.520;13.352;2022-12-18T05:15:21;85.90;;;24.85;;
31043;SDS011;17710;52.520;13.352;2022-12-18T05:17:47;89.28;;;26.55;;
31043;SDS011;17710;52.520;13.352;2022-12-18T05:20:13;87.45;;;25.95;;
31043;SDS011;17710;52.520;13.352;2022-12-18T05:22:40;88.00;;;25.63;;
31043;SDS011;17710;52.520;13.352;2022-12-18T05:25:08;86.93;;;25.20;;
31043;SDS011;17710;52.520;13.352;2022-12-18T05:27:34;81.72;;;22.98;;
31043;SDS011;17710;52.520;13.352;2022-12-18T05:30:01;73.15;;;21.73;;
31043;SDS011;17710;52.520;13.352;2022-12-18T05:32:27;77.45;;;24.38;;
31043;SDS011;17710;52.520;13.352;2022-12-18T05:34:53;83.85;;;25.35;;
31043;SDS011;17710;52.520;13.352;2022-12-18T05:37:22;75.97;;;22.60;;
31043;SDS011;17710;52.520;13.352;2022-12-18T05:39:48;78.20;;;23.60;;
31043;SDS011;17710;52.520;13.352;2022-12-18T05:42:16;75.75;;;21.85;;
31043;SDS011;17710;52.520;13.352;2022-12-18T05:44:42;71.13;;;21.77;;
31043;SDS011;17710;52.520;13.352;2022-12-18T05:47:09;71.00;;;23.00;;
31043;SDS011;17710;52.520;13.352;2022-12-18T05:49:35;81.10;;;23.40;;
31043;SDS011;17710;52.520;13.352;2022-12-18T05:52:02;69.30;;;21.60;;
31043;SDS011;17710;52.520;13.352;2022-12-18T05:54:28;75.07;;;22.70;;
31043;SDS011;17710;52.520;13.352;2022-12-18T05:56:56;75.90;;;21.73;;
31043;SDS011;17710;52.520;13.352;2022-12-18T05:59:24;76.78;;;23.73;;
31043;SDS011;17710;52.520;13.352;2022-12-18T06:01:50;79.95;;;23.98;;
31043;SDS011;17710;52.520;13.352;2022-12-18T06:04:17;71.97;;;21.33;;
31043;SDS011;17710;52.520;13.352;2022-12-18T06:06:43;72.85;;;23.27;;
31043;SDS011;17710;52.520;13.352;2022-12-18T06:09:10;75.78;;;22.42;;
31043;SDS011;17710;52.520;13.352;2022-12-18T06:11:37;86.80;;;24.10;;
31043;SDS011;17710;52.520;13.352;2022-12-18T06:14:04;78.53;;;22.42;;
31043;SDS011;17710;52.520;13.352;2022-12-18T06:16:33;84.70;;;24.30;;
31043;SDS011;17710;52.520;13.352;2022-12-18T06:19:00;84.03;;;25.23;;
31043;SDS011;17710;52.520;13.352;2022-12-18T06:21:29;73.88;;;23.15;;
31043;SDS011;17710;52.520;13.352;2022-12-18T06:23:56;87.30;;;25.83;;
31043;SDS011;17710;52.520;13.352;2022-12-18T06:26:22;88.55;;;25.25;;
31043;SDS011;17710;52.520;13.352;2022-12-18T06:28:49;85.47;;;25.55;;
31043;SDS011;17710;52.520;13.352;2022-12-18T06:31:15;86.93;;;25.27;;
31043;SDS011;17710;52.520;13.352;2022-12-18T06:33:43;82.38;;;26.33;;
31043;SDS011;17710;52.520;13.352;2022-12-18T06:36:11;79.45;;;25.92;;
31043;SDS011;17710;52.520;13.352;2022-12-18T06:38:40;82.03;;;24.90;;
31043;SDS011;17710;52.520;13.352;2022-12-18T06:41:08;85.68;;;26.88;;
31043;SDS011;17710;52.520;13.352;2022-12-18T06:43:35;82.35;;;25.55;;
31043;SDS011;17710;52.520;13.352;2022-12-18T06:46:02;87.32;;;25.10;;
31043;SDS011;17710;52.520;13.352;2022-12-18T06:48:29;90.18;;;26.23;;
31043;SDS011;17710;52.520;13.352;2022-12-18T06:50:58;74.40;;;20.52;;
31043;SDS011;17710;52.520;13.352;2022-12-18T06:53:24;84.57;;;26.83;;
31043;SDS011;17710;52.520;13.352;2022-12-18T06:55:51;76.30;;;25.55;;
31043;SDS011;17710;52.520;13.352;2022-12-18T06:58:17;86.00;;;24.77;;
31043;SDS011;17710;52.520;13.352;2022-12-18T07:00:44;83.32;;;26.17;;
31043;SDS011;17710;52.520;13.352;2022-12-18T07:03:11;83.55;;;25.95;;
31043;SDS011;17710;52.520;13.352;2022-12-18T07:05:39;79.53;;;26.02;;
31043;SDS011;17710;52.520;13.352;2022-12-18T07:08:07;68.40;;;23.55;;
31043;SDS011;17710;52.520;13.352;2022-12-18T07:10:35;73.38;;;24.20;;
31043;SDS011;17710;52.520;13.352;2022-12-18T07:13:06;73.68;;;22.92;;
31043;SDS011;17710;52.520;13.352;2022-12-18T07:15:33;67.90;;;22.05;;
31043;SDS011;17710;52.520;13.352;2022-12-18T07:17:59;67.80;;;22.35;;
31043;SDS011;17710;52.520;13.352;2022-12-18T07:20:26;71.05;;;22.45;;
31043;SDS011;17710;52.520;13.352;2022-12-18T07:22:52;63.10;;;21.52;;
31043;SDS011;17710;52.520;13.352;2022-12-18T07:25:20;65.93;;;22.42;;
31043;SDS011;17710;52.520;13.352;2022-12-18T07:27:46;69.22;;;22.17;;
31043;SDS011;17710;52.520;13.352;2022-12-18T07:30:13;62.13;;;20.33;;
31043;SDS011;17710;52.520;13.352;2022-12-18T07:32:39;67.18;;;21.00;;
31043;SDS011;17710;52.520;13.352;2022-12-18T07:35:06;66.97;;;21.42;;
31043;SDS011;17710;52.520;13.352;2022-12-18T07:37:32;68.47;;;21.55;;
31043;SDS011;17710;52.520;13.352;2022-12-18T07:39:59;64.22;;;20.42;;
31043;SDS011;17710;52.520;13.352;2022-12-18T07:42:27;62.60;;;21.33;;
31043;SDS011;17710;52.520;13.352;2022-12-18T07:44:56;60.28;;;19.75;;
31043;SDS011;17710;52.520;13.352;2022-12-18T07:47:23;62.50;;;20.30;;
31043;SDS011;17710;52.520;13.352;2022-12-18T07:49:49;64.78;;;21.65;;
31043;SDS011;17710;52.520;13.352;2022-12-18T07:52:15;63.90;;;21.13;;
31043;SDS011;17710;52.520;13.352;2022-12-18T07:54:42;72.88;;;22.90;;
31043;SDS011;17710;52.520;13.352;2022-12-18T07:57:08;71.80;;;23.42;;
31043;SDS011;17710;52.520;13.352;2022-12-18T07:59:36;74.95;;;22.98;;
31043;SDS011;17710;52.520;13.352;2022-12-18T08:02:03;80.45;;;24.00;;
31043;SDS011;17710;52.520;13.352;2022-12-18T08:04:29;75.68;;;22.90;;
31043;SDS011;17710;52.520;13.352;2022-12-18T08:06:56;72.15;;;22.70;;
31043;SDS011;17710;52.520;13.352;2022-12-18T08:09:22;71.10;;;24.08;;
31043;SDS011;17710;52.520;13.352;2022-12-18T08:11:48;69.00;;;21.40;;
31043;SDS011;17710;52.520;13.352;2022-12-18T08:14:15;69.22;;;22.13;;
31043;SDS011;17710;52.520;13.352;2022-12-18T08:16:43;73.75;;;22.95;;
31043;SDS011;17710;52.520;13.352;2022-12-18T08:19:09;71.55;;;21.55;;
31043;SDS011;17710;52.520;13.352;2022-12-18T08:21:35;66.93;;;22.60;;
31043;SDS011;17710;52.520;13.352;2022-12-18T08:24:05;70.60;;;22.05;;
31043;SDS011;17710;52.520;13.352;2022-12-18T08:26:32;72.55;;;21.38;;
31043;SDS011;17710;52.520;13.352;2022-12-18T08:28:59;67.00;;;21.08;;
31043;SDS011;17710;52.520;13.352;2022-12-18T08:31:27;71.03;;;23.60;;
31043;SDS011;17710;52.520;13.352;2022-12-18T08:33:56;74.18;;;24.45;;
31043;SDS011;17710;52.520;13.352;2022-12-18T08:36:23;64.50;;;22.35;;
31043;SDS011;17710;52.520;13.352;2022-12-18T08:38:50;63.00;;;19.35;;
31043;SDS011;17710;52.520;13.352;2022-12-18T08:41:17;74.47;;;21.88;;
31043;SDS011;17710;52.520;13.352;2022-12-18T08:43:44;75.18;;;22.45;;
31043;SDS011;17710;52.520;13.352;2022-12-18T08:46:31;64.07;;;20.80;;
31043;SDS011;17710;52.520;13.352;2022-12-18T08:49:01;63.72;;;21.67;;
31043;SDS011;17710;52.520;13.352;2022-12-18T08:51:27;59.67;;;20.35;;
31043;SDS011;17710;52.520;13.352;2022-12-18T08:53:54;61.40;;;20.88;;
31043;SDS011;17710;52.520;13.352;2022-12-18T08:56:21;57.15;;;19.65;;
31043;SDS011;17710;52.520;13.352;2022-12-18T08:58:47;70.60;;;22.35;;
31043;SDS011;17710;52.520;13.352;2022-12-18T09:01:17;66.40;;;20.02;;
31043;SDS011;17710;52.520;13.352;2022-12-18T09:03:43;60.72;;;19.63;;
31043;SDS011;17710;52.520;13.352;2022-12-18T09:06:15;66.53;;;20.90;;
31043;SDS011;17710;52.520;13.352;2022-12-18T09:08:43;57.72;;;19.55;;
31043;SDS011;17710;52.520;13.352;2022-12-18T09:11:11;61.83;;;20.05;;
31043;SDS011;17710;52.520;13.352;2022-12-18T09:13:40;62.95;;;20.65;;
31043;SDS011;17710;52.520;13.352;2022-12-18T09:16:07;60.22;;;20.20;;
31043;SDS011;17710;52.520;13.352;2022-12-18T09:18:33;59.00;;;20.48;;
31043;SDS011;17710;52.520;13.352;2022-12-18T09:20:59;55.75;;;19.30;;
31043;SDS011;17710;52.520;13.352;2022-12-18T09:23:27;58.60;;;20.02;;
31043;SDS011;17710;52.520;13.352;2022-12-18T09:25:58;57.42;;;19.65;;
31043;SDS011;17710;52.520;13.352;2022-12-18T09:28:26;58.13;;;20.13;;
31043;SDS011;17710;52.520;13.352;2022-12-18T09:30:52;55.08;;;19.38;;
31043;SDS011;17710;52.520;13.352;2022-12-18T09:33:19;57.67;;;19.92;;
31043;SDS011;17710;52.520;13.352;2022-12-18T09:35:46;67.70;;;19.88;;
31043;SDS011;17710;52.520;13.352;2022-12-18T09:38:13;57.58;;;20.15;;
31043;SDS011;17710;52.520;13.352;2022-12-18T09:40:42;55.15;;;18.15;;
31043;SDS011;17710;52.520;13.352;2022-12-18T09:43:13;57.75;;;18.80;;
31043;SDS011;17710;52.520;13.352;2022-12-18T09:45:43;59.38;;;19.17;;
31043;SDS011;17710;52.520;13.352;2022-12-18T09:48:14;54.03;;;19.23;;
31043;SDS011;17710;52.520;13.352;2022-12-18T09:50:42;63.60;;;20.55;;
31043;SDS011;17710;52.520;13.352;2022-12-18T09:53:12;58.55;;;18.83;;
31043;SDS011;17710;52.520;13.352;2022-12-18T09:55:46;64.18;;;20.10;;
31043;SDS011;17710;52.520;13.352;2022-12-18T09:58:15;59.03;;;19.98;;
31043;SDS011;17710;52.520;13.352;2022-12-18T10:00:45;58.72;;;18.42;;
31043;SDS011;17710;52.520;13.352;2022-12-18T10:03:13;53.70;;;19.13;;
31043;SDS011;17710;52.520;13.352;2022-12-18T10:05:42;54.20;;;19.38;;
31043;SDS011;17710;52.520;13.352;2022-12-18T10:08:17;58.47;;;19.38;;
31043;SDS011;17710;52.520;13.352;2022-12-18T10:10:50;54.45;;;18.73;;
31043;SDS011;17710;52.520;13.352;2022-12-18T10:13:21;54.67;;;20.15;;
31043;SDS011;17710;52.520;13.352;2022-12-18T10:15:54;53.70;;;18.70;;
31043;SDS011;17710;52.520;13.352;2022-12-18T10:18:36;55.40;;;19.05;;
31043;SDS011;17710;52.520;13.352;2022-12-18T10:21:17;51.45;;;18.92;;
31043;SDS011;17710;52.520;13.352;2022-12-18T10:23:51;59.72;;;19.25;;
31043;SDS011;17710;52.520;13.352;2022-12-18T10:26:27;62.45;;;20.73;;
31043;SDS011;17710;52.520;13.352;2022-12-18T10:28:53;58.47;;;19.98;;
31043;SDS011;17710;52.520;13.352;2022-12-18T10:31:23;68.05;;;21.95;;
31043;SDS011;17710;52.520;13.352;2022-12-18T10:33:50;65.10;;;20.75;;
31043;SDS011;17710;52.520;13.352;2022-12-18T10:36:17;63.67;;;21.77;;
31043;SDS011;17710;52.520;13.352;2022-12-18T10:38:43;63.83;;;22.38;;
31043;SDS011;17710;52.520;13.352;2022-12-18T10:41:22;63.60;;;20.58;;
31043;SDS011;17710;52.520;13.352;2022-12-18T10:44:10;72.18;;;22.25;;
31043;SDS011;17710;52.520;13.352;2022-12-18T10:46:37;59.80;;;19.73;;
31043;SDS011;17710;52.520;13.352;2022-12-18T10:49:04;59.78;;;20.33;;
31043;SDS011;17710;52.520;13.352;2022-12-18T10:51:32;67.53;;;22.27;;
31043;SDS011;17710;52.520;13.352;2022-12-18T10:54:01;59.15;;;22.08;;
31043;SDS011;17710;52.520;13.352;2022-12-18T10:56:30;64.25;;;20.23;;
31043;SDS011;17710;52.520;13.352;2022-12-18T10:59:02;61.85;;;20.50;;
31043;SDS011;17710;52.520;13.352;2022-12-18T11:01:44;60.72;;;20.40;;
31043;SDS011;17710;52.520;13.352;2022-12-18T11:04:15;60.15;;;21.60;;
31043;SDS011;17710;52.520;13.352;2022-12-18T11:06:52;65.03;;;21.90;;
31043;SDS011;17710;52.520;13.352;2022-12-18T11:09:21;59.10;;;21.73;;
31043;SDS011;17710;52.520;13.352;2022-12-18T11:11:49;70.15;;;22.65;;
31043;SDS011;17710;52.520;13.352;2022-12-18T11:14:21;63.65;;;22.48;;
31043;SDS011;17710;52.520;13.352;2022-12-18T11:16:50;63.65;;;20.17;;
31043;SDS011;17710;52.520;13.352;2022-12-18T11:19:22;68.40;;;22.58;;
31043;SDS011;17710;52.520;13.352;2022-12-18T11:22:01;61.72;;;21.73;;
31043;SDS011;17710;52.520;13.352;2022-12-18T11:24:30;70.28;;;22.40;;
31043;SDS011;17710;52.520;13.352;2022-12-18T11:26:59;64.72;;;21.58;;
31043;SDS011;17710;52.520;13.352;2022-12-18T11:29:33;68.68;;;21.83;;
31043;SDS011;17710;52.520;13.352;2022-12-18T11:32:12;70.85;;;20.75;;
31043;SDS011;17710;52.520;13.352;2022-12-18T11:34:55;67.15;;;20.77;;
31043;SDS011;17710;52.520;13.352;2022-12-18T11:37:27;68.38;;;22.45;;
31043;SDS011;17710;52.520;13.352;2022-12-18T11:39:56;70.32;;;21.52;;
31043;SDS011;17710;52.520;13.352;2022-12-18T11:42:27;63.55;;;20.33;;
31043;SDS011;17710;52.520;13.352;2022-12-18T11:45:07;58.88;;;19.63;;
31043;SDS011;17710;52.520;13.352;2022-12-18T11:47:48;58.35;;;20.27;;
31043;SDS011;17710;52.520;13.352;2022-12-18T11:50:19;57.50;;;19.73;;
31043;SDS011;17710;52.520;13.352;2022-12-18T11:52:49;61.08;;;19.70;;
31043;SDS011;17710;52.520;13.352;2022-12-18T11:55:18;49.20;;;17.77;;
31043;SDS011;17710;52.520;13.352;2022-12-18T11:57:53;50.35;;;18.13;;
31043;SDS011;17710;52.520;13.352;2022-12-18T12:00:27;56.00;;;18.80;;
31043;SDS011;17710;52.520;13.352;2022-12-18T12:03:02;52.35;;;17.85;;
31043;SDS011;17710;52.520;13.352;2022-12-18T12:05:41;49.58;;;17.77;;
31043;SDS011;17710;52.520;13.352;2022-12-18T12:08:17;47.58;;;17.02;;
31043;SDS011;17710;52.520;13.352;2022-12-18T12:10:56;55.97;;;18.15;;
31043;SDS011;17710;52.520;13.352;2022-12-18T12:13:37;49.08;;;16.92;;
31043;SDS011;17710;52.520;13.352;2022-12-18T12:16:13;53.60;;;18.50;;
31043;SDS011;17710;52.520;13.352;2022-12-18T12:18:50;57.28;;;19.23;;
31043;SDS011;17710;52.520;13.352;2022-12-18T12:21:28;53.35;;;18.60;;
31043;SDS011;17710;52.520;13.352;2022-12-18T12:24:07;60.47;;;18.92;;
31043;SDS011;17710;52.520;13.352;2022-12-18T12:26:48;55.90;;;18.35;;
31043;SDS011;17710;52.520;13.352;2022-12-18T12:29:27;53.10;;;18.10;;
31043;SDS011;17710;52.520;13.352;2022-12-18T12:32:14;58.80;;;18.92;;
31043;SDS011;17710;52.520;13.352;2022-12-18T12:34:57;53.22;;;17.50;;
31043;SDS011;17710;52.520;13.352;2022-12-18T12:37:37;48.90;;;18.52;;
31043;SDS011;17710;52.520;13.352;2022-12-18T12:40:14;49.60;;;18.15;;
31043;SDS011;17710;52.520;13.352;2022-12-18T12:42:47;46.92;;;18.33;;
31043;SDS011;17710;52.520;13.352;2022-12-18T12:45:39;45.10;;;18.25;;
31043;SDS011;17710;52.520;13.352;2022-12-18T12:48:13;50.60;;;19.77;;
31043;SDS011;17710;52.520;13.352;2022-12-18T12:50:44;50.58;;;17.98;;
31043;SDS011;17710;52.520;13.352;2022-12-18T12:53:21;46.03;;;17.85;;
31043;SDS011;17710;52.520;13.352;2022-12-18T12:55:53;53.38;;;18.17;;
31043;SDS011;17710;52.520;13.352;2022-12-18T12:58:23;50.90;;;18.60;;
31043;SDS011;17710;52.520;13.352;2022-12-18T13:01:00;49.80;;;16.38;;
31043;SDS011;17710;52.520;13.352;2022-12-18T13:03:41;50.38;;;17.83;;
31043;SDS011;17710;52.520;13.352;2022-12-18T13:06:16;48.78;;;18.15;;
31043;SDS011;17710;52.520;13.352;2022-12-18T13:08:51;42.80;;;16.25;;
31043;SDS011;17710;52.520;13.352;2022-12-18T13:11:28;44.95;;;15.90;;
31043;SDS011;17710;52.520;13.352;2022-12-18T13:14:19;43.53;;;16.48;;
31043;SDS011;17710;52.520;13.352;2022-12-18T13:16:50;45.38;;;17.40;;
31043;SDS011;17710;52.520;13.352;2022-12-18T13:19:25;44.42;;;17.58;;
31043;SDS011;17710;52.520;13.352;2022-12-18T13:21:53;48.83;;;18.50;;
31043;SDS011;17710;52.520;13.352;2022-12-18T13:24:23;51.33;;;17.27;;
31043;SDS011;17710;52.520;13.352;2022-12-18T13:26:51;43.85;;;17.58;;
31043;SDS011;17710;52.520;13.352;2022-12-18T13:32:21;52.63;;;19.00;;
31043;SDS011;17710;52.520;13.352;2022-12-18T13:37:54;38.22;;;16.48;;
31043;SDS011;17710;52.520;13.352;2022-12-18T13:43:27;46.25;;;18.30;;
31043;SDS011;17710;52.520;13.352;2022-12-18T13:46:00;42.38;;;17.30;;
31043;SDS011;17710;52.520;13.352;2022-12-18T13:48:30;45.50;;;17.95;;
31043;SDS011;17710;52.520;13.352;2022-12-18T13:50:59;42.75;;;18.15;;
31043;SDS011;17710;52.520;13.352;2022-12-18T13:53:31;47.13;;;17.92;;
31043;SDS011;17710;52.520;13.352;2022-12-18T13:56:02;48.80;;;18.38;;
31043;SDS011;17710;52.520;13.352;2022-12-18T13:58:29;51.30;;;18.30;;
31043;SDS011;17710;52.520;13.352;2022-12-18T14:00:56;50.40;;;18.73;;
31043;SDS011;17710;52.520;13.352;2022-12-18T14:03:24;50.13;;;19.02;;
31043;SDS011;17710;52.520;13.352;2022-12-18T14:05:54;51.15;;;20.98;;
31043;SDS011;17710;52.520;13.352;2022-12-18T14:08:24;48.33;;;20.00;;
31043;SDS011;17710;52.520;13.352;2022-12-18T14:10:57;51.70;;;21.10;;
31043;SDS011;17710;52.520;13.352;2022-12-18T14:13:24;50.25;;;19.50;;
31043;SDS011;17710;52.520;13.352;2022-12-18T14:15:57;49.15;;;21.45;;
31043;SDS011;17710;52.520;13.352;2022-12-18T14:18:26;52.67;;;20.70;;
31043;SDS011;17710;52.520;13.352;2022-12-18T14:21:00;56.08;;;22.35;;
31043;SDS011;17710;52.520;13.352;2022-12-18T14:23:30;54.10;;;21.65;;
31043;SDS011;17710;52.520;13.352;2022-12-18T14:26:00;51.55;;;21.48;;
31043;SDS011;17710;52.520;13.352;2022-12-18T14:28:30;58.05;;;23.58;;
31043;SDS011;17710;52.520;13.352;2022-12-18T14:30:57;54.13;;;23.17;;
31043;SDS011;17710;52.520;13.352;2022-12-18T14:33:24;60.88;;;24.05;;
31043;SDS011;17710;52.520;13.352;2022-12-18T14:35:53;53.60;;;21.00;;